sensor_id;sensor_type;location;lat;lon;timestamp;P1;durP1;ratioP1;P2;durP2;ratioP2
46334;SDS011;32051;48.882;9.210;2023-05-10T00:01:39;0.70;;;0.70;;
46334;SDS011;32051;48.882;9.210;2023-05-10T00:04:05;0.30;;;0.30;;
46334;SDS011;32051;48.882;9.210;2023-05-10T00:06:31;0.82;;;0.80;;
46334;SDS011;32051;48.882;9.210;2023-05-10T00:08:57;0.40;;;0.32;;
46334;SDS011;32051;48.882;9.210;2023-05-10T00:11:23;0.30;;;0.30;;
46334;SDS011;32051;48.882;9.210;2023-05-10T00:13:49;1.30;;;0.40;;
46334;SDS011;32051;48.882;9.210;2023-05-10T00:16:16;0.40;;;0.40;;
46334;SDS011;32051;48.882;9.210;2023-05-10T00:18:42;0.28;;;0.28;;
46334;SDS011;32051;48.882;9.210;2023-05-10T00:21:08;3.13;;;0.20;;
46334;SDS011;32051;48.882;9.210;2023-05-10T00:23:34;0.22;;;0.20;;
46334;SDS011;32051;48.882;9.210;2023-05-10T00:26:00;0.20;;;0.20;;
46334;SDS011;32051;48.882;9.210;2023-05-10T00:28:27;0.20;;;0.20;;
46334;SDS011;32051;48.882;9.210;2023-05-10T00:30:53;2.13;;;0.20;;
46334;SDS011;32051;48.882;9.210;2023-05-10T00:33:20;7.25;;;0.30;;
46334;SDS011;32051;48.882;9.210;2023-05-10T00:35:46;0.45;;;0.10;;
46334;SDS011;32051;48.882;9.210;2023-05-10T00:38:12;0.15;;;0.15;;
46334;SDS011;32051;48.882;9.210;2023-05-10T00:40:40;0.43;;;0.20;;
46334;SDS011;32051;48.882;9.210;2023-05-10T00:43:13;0.95;;;0.20;;
46334;SDS011;32051;48.882;9.210;2023-05-10T00:45:39;1.73;;;0.25;;
46334;SDS011;32051;48.882;9.210;2023-05-10T00:48:06;0.25;;;0.25;;
46334;SDS011;32051;48.882;9.210;2023-05-10T00:50:32;0.25;;;0.25;;
46334;SDS011;32051;48.882;9.210;2023-05-10T00:52:59;0.35;;;0.30;;
46334;SDS011;32051;48.882;9.210;2023-05-10T00:55:26;0.35;;;0.30;;
46334;SDS011;32051;48.882;9.210;2023-05-10T00:57:53;0.40;;;0.40;;
46334;SDS011;32051;48.882;9.210;2023-05-10T01:00:19;0.30;;;0.30;;
46334;SDS011;32051;48.882;9.210;2023-05-10T01:02:45;0.28;;;0.20;;
46334;SDS011;32051;48.882;9.210;2023-05-10T01:05:12;0.30;;;0.30;;
46334;SDS011;32051;48.882;9.210;2023-05-10T01:07:38;5.78;;;0.22;;
46334;SDS011;32051;48.882;9.210;2023-05-10T01:10:05;0.32;;;0.32;;
46334;SDS011;32051;48.882;9.210;2023-05-10T01:12:32;0.20;;;0.20;;
46334;SDS011;32051;48.882;9.210;2023-05-10T01:14:58;0.28;;;0.28;;
46334;SDS011;32051;48.882;9.210;2023-05-10T01:17:24;0.28;;;0.28;;
46334;SDS011;32051;48.882;9.210;2023-05-10T01:19:50;0.30;;;0.30;;
46334;SDS011;32051;48.882;9.210;2023-05-10T01:22:25;0.50;;;0.50;;
46334;SDS011;32051;48.882;9.210;2023-05-10T01:35:20;0.88;;;0.60;;
46334;SDS011;32051;48.882;9.210;2023-05-10T01:37:52;0.73;;;0.73;;
46334;SDS011;32051;48.882;9.210;2023-05-10T01:40:25;0.90;;;0.90;;
46334;SDS011;32051;48.882;9.210;2023-05-10T01:42:59;2.55;;;0.77;;
46334;SDS011;32051;48.882;9.210;2023-05-10T01:45:29;0.93;;;0.93;;
46334;SDS011;32051;48.882;9.210;2023-05-10T01:48:06;3.15;;;0.90;;
46334;SDS011;32051;48.882;9.210;2023-05-10T01:50:32;1.00;;;1.00;;
46334;SDS011;32051;48.882;9.210;2023-05-10T01:53:00;0.88;;;0.88;;
46334;SDS011;32051;48.882;9.210;2023-05-10T01:55:28;1.20;;;1.20;;
46334;SDS011;32051;48.882;9.210;2023-05-10T01:58:04;1.00;;;0.98;;
46334;SDS011;32051;48.882;9.210;2023-05-10T02:00:31;0.80;;;0.80;;
46334;SDS011;32051;48.882;9.210;2023-05-10T02:02:58;0.68;;;0.68;;
46334;SDS011;32051;48.882;9.210;2023-05-10T02:05:25;0.70;;;0.70;;
46334;SDS011;32051;48.882;9.210;2023-05-10T02:07:52;4.85;;;0.60;;
46334;SDS011;32051;48.882;9.210;2023-05-10T02:10:19;0.52;;;0.52;;
46334;SDS011;32051;48.882;9.210;2023-05-10T02:12:46;2.35;;;0.93;;
46334;SDS011;32051;48.882;9.210;2023-05-10T02:15:15;0.75;;;0.75;;
46334;SDS011;32051;48.882;9.210;2023-05-10T02:17:42;0.57;;;0.57;;
46334;SDS011;32051;48.882;9.210;2023-05-10T02:20:09;0.57;;;0.57;;
46334;SDS011;32051;48.882;9.210;2023-05-10T02:22:36;4.20;;;1.08;;
46334;SDS011;32051;48.882;9.210;2023-05-10T02:25:03;0.88;;;0.88;;
46334;SDS011;32051;48.882;9.210;2023-05-10T02:27:29;2.78;;;0.93;;
46334;SDS011;32051;48.882;9.210;2023-05-10T02:29:56;4.97;;;0.95;;
46334;SDS011;32051;48.882;9.210;2023-05-10T02:32:22;1.63;;;0.80;;
46334;SDS011;32051;48.882;9.210;2023-05-10T02:34:50;0.60;;;0.60;;
46334;SDS011;32051;48.882;9.210;2023-05-10T02:37:18;0.70;;;0.70;;
46334;SDS011;32051;48.882;9.210;2023-05-10T02:39:45;0.60;;;0.60;;
46334;SDS011;32051;48.882;9.210;2023-05-10T02:42:11;0.80;;;0.80;;
46334;SDS011;32051;48.882;9.210;2023-05-10T02:44:41;0.88;;;0.88;;
46334;SDS011;32051;48.882;9.210;2023-05-10T02:47:08;0.73;;;0.73;;
46334;SDS011;32051;48.882;9.210;2023-05-10T02:49:34;4.85;;;0.82;;
46334;SDS011;32051;48.882;9.210;2023-05-10T02:52:01;1.05;;;0.95;;
46334;SDS011;32051;48.882;9.210;2023-05-10T02:54:33;0.98;;;0.68;;
46334;SDS011;32051;48.882;9.210;2023-05-10T02:57:03;6.72;;;1.33;;
46334;SDS011;32051;48.882;9.210;2023-05-10T02:59:30;0.77;;;0.77;;
46334;SDS011;32051;48.882;9.210;2023-05-10T03:01:57;6.75;;;0.90;;
46334;SDS011;32051;48.882;9.210;2023-05-10T03:04:25;1.10;;;1.10;;
46334;SDS011;32051;48.882;9.210;2023-05-10T03:06:54;1.15;;;1.10;;
46334;SDS011;32051;48.882;9.210;2023-05-10T03:09:20;0.82;;;0.82;;
46334;SDS011;32051;48.882;9.210;2023-05-10T03:11:55;1.05;;;1.05;;
46334;SDS011;32051;48.882;9.210;2023-05-10T03:16:56;5.82;;;1.10;;
46334;SDS011;32051;48.882;9.210;2023-05-10T03:19:24;0.85;;;0.85;;
46334;SDS011;32051;48.882;9.210;2023-05-10T03:21:52;7.10;;;0.93;;
46334;SDS011;32051;48.882;9.210;2023-05-10T03:24:20;3.50;;;1.17;;
46334;SDS011;32051;48.882;9.210;2023-05-10T03:26:48;2.25;;;1.42;;
46334;SDS011;32051;48.882;9.210;2023-05-10T03:29:16;7.00;;;2.10;;
46334;SDS011;32051;48.882;9.210;2023-05-10T03:31:43;2.65;;;1.27;;
46334;SDS011;32051;48.882;9.210;2023-05-10T03:34:09;3.97;;;1.95;;
46334;SDS011;32051;48.882;9.210;2023-05-10T03:36:35;1.10;;;1.10;;
46334;SDS011;32051;48.882;9.210;2023-05-10T03:39:01;1.00;;;1.00;;
46334;SDS011;32051;48.882;9.210;2023-05-10T03:41:27;1.20;;;1.20;;
46334;SDS011;32051;48.882;9.210;2023-05-10T03:43:54;6.63;;;1.30;;
46334;SDS011;32051;48.882;9.210;2023-05-10T03:46:20;3.40;;;1.33;;
46334;SDS011;32051;48.882;9.210;2023-05-10T03:48:46;3.63;;;1.30;;
46334;SDS011;32051;48.882;9.210;2023-05-10T03:51:12;2.95;;;1.60;;
46334;SDS011;32051;48.882;9.210;2023-05-10T03:53:38;1.60;;;1.60;;
46334;SDS011;32051;48.882;9.210;2023-05-10T03:56:04;6.65;;;1.67;;
46334;SDS011;32051;48.882;9.210;2023-05-10T03:58:31;4.28;;;1.50;;
46334;SDS011;32051;48.882;9.210;2023-05-10T04:00:57;1.88;;;1.77;;
46334;SDS011;32051;48.882;9.210;2023-05-10T04:03:23;5.03;;;2.42;;
46334;SDS011;32051;48.882;9.210;2023-05-10T04:05:57;2.35;;;2.25;;
46334;SDS011;32051;48.882;9.210;2023-05-10T04:08:24;1.90;;;1.80;;
46334;SDS011;32051;48.882;9.210;2023-05-10T04:10:50;2.10;;;2.00;;
46334;SDS011;32051;48.882;9.210;2023-05-10T04:13:16;5.25;;;2.53;;
46334;SDS011;32051;48.882;9.210;2023-05-10T04:15:42;2.50;;;2.40;;
46334;SDS011;32051;48.882;9.210;2023-05-10T04:18:08;1.90;;;1.80;;
46334;SDS011;32051;48.882;9.210;2023-05-10T04:20:35;2.40;;;2.20;;
46334;SDS011;32051;48.882;9.210;2023-05-10T04:23:01;2.05;;;1.95;;
46334;SDS011;32051;48.882;9.210;2023-05-10T04:25:28;2.00;;;1.90;;
46334;SDS011;32051;48.882;9.210;2023-05-10T04:27:54;4.30;;;2.17;;
46334;SDS011;32051;48.882;9.210;2023-05-10T04:30:20;1.98;;;1.70;;
46334;SDS011;32051;48.882;9.210;2023-05-10T04:32:46;2.10;;;1.52;;
46334;SDS011;32051;48.882;9.210;2023-05-10T04:35:12;1.83;;;1.73;;
46334;SDS011;32051;48.882;9.210;2023-05-10T04:37:39;1.55;;;1.50;;
46334;SDS011;32051;48.882;9.210;2023-05-10T04:40:06;1.83;;;1.55;;
46334;SDS011;32051;48.882;9.210;2023-05-10T04:42:32;1.75;;;1.65;;
46334;SDS011;32051;48.882;9.210;2023-05-10T04:44:58;1.27;;;1.27;;
46334;SDS011;32051;48.882;9.210;2023-05-10T04:47:24;1.55;;;1.45;;
46334;SDS011;32051;48.882;9.210;2023-05-10T04:49:50;1.73;;;1.63;;
46334;SDS011;32051;48.882;9.210;2023-05-10T04:52:16;1.48;;;1.10;;
46334;SDS011;32051;48.882;9.210;2023-05-10T04:54:42;4.05;;;1.35;;
46334;SDS011;32051;48.882;9.210;2023-05-10T04:57:09;1.10;;;1.10;;
46334;SDS011;32051;48.882;9.210;2023-05-10T04:59:38;1.92;;;1.10;;
46334;SDS011;32051;48.882;9.210;2023-05-10T05:02:04;1.23;;;1.23;;
46334;SDS011;32051;48.882;9.210;2023-05-10T05:04:30;1.38;;;1.27;;
46334;SDS011;32051;48.882;9.210;2023-05-10T05:06:57;3.88;;;1.80;;
46334;SDS011;32051;48.882;9.210;2023-05-10T05:09:23;4.50;;;1.20;;
46334;SDS011;32051;48.882;9.210;2023-05-10T05:11:49;0.98;;;0.98;;
46334;SDS011;32051;48.882;9.210;2023-05-10T05:14:15;5.25;;;1.25;;
46334;SDS011;32051;48.882;9.210;2023-05-10T05:16:41;1.08;;;1.02;;
46334;SDS011;32051;48.882;9.210;2023-05-10T05:19:07;1.20;;;1.20;;
46334;SDS011;32051;48.882;9.210;2023-05-10T05:21:33;1.00;;;1.00;;
46334;SDS011;32051;48.882;9.210;2023-05-10T05:23:59;6.55;;;1.40;;
46334;SDS011;32051;48.882;9.210;2023-05-10T05:26:26;1.55;;;1.52;;
46334;SDS011;32051;48.882;9.210;2023-05-10T05:28:52;3.50;;;1.10;;
46334;SDS011;32051;48.882;9.210;2023-05-10T05:31:19;1.15;;;1.15;;
46334;SDS011;32051;48.882;9.210;2023-05-10T05:33:46;1.45;;;1.35;;
46334;SDS011;32051;48.882;9.210;2023-05-10T05:36:12;1.33;;;1.23;;
46334;SDS011;32051;48.882;9.210;2023-05-10T05:38:38;5.57;;;1.50;;
46334;SDS011;32051;48.882;9.210;2023-05-10T05:41:04;2.85;;;0.95;;
46334;SDS011;32051;48.882;9.210;2023-05-10T05:43:30;3.80;;;0.93;;
46334;SDS011;32051;48.882;9.210;2023-05-10T05:45:56;1.40;;;1.30;;
46334;SDS011;32051;48.882;9.210;2023-05-10T05:48:23;3.35;;;1.48;;
46334;SDS011;32051;48.882;9.210;2023-05-10T05:50:49;1.52;;;1.35;;
46334;SDS011;32051;48.882;9.210;2023-05-10T05:53:15;1.02;;;1.02;;
46334;SDS011;32051;48.882;9.210;2023-05-10T05:55:50;5.18;;;1.40;;
46334;SDS011;32051;48.882;9.210;2023-05-10T05:58:17;1.88;;;1.45;;
46334;SDS011;32051;48.882;9.210;2023-05-10T06:00:43;1.33;;;1.23;;
46334;SDS011;32051;48.882;9.210;2023-05-10T06:03:09;1.98;;;1.45;;
46334;SDS011;32051;48.882;9.210;2023-05-10T06:05:35;1.73;;;1.58;;
46334;SDS011;32051;48.882;9.210;2023-05-10T06:08:01;1.85;;;1.75;;
46334;SDS011;32051;48.882;9.210;2023-05-10T06:10:27;1.50;;;1.40;;
46334;SDS011;32051;48.882;9.210;2023-05-10T06:12:53;5.70;;;2.45;;
46334;SDS011;32051;48.882;9.210;2023-05-10T06:15:19;2.67;;;1.50;;
46334;SDS011;32051;48.882;9.210;2023-05-10T06:17:45;1.63;;;1.40;;
46334;SDS011;32051;48.882;9.210;2023-05-10T06:20:14;1.20;;;1.20;;
46334;SDS011;32051;48.882;9.210;2023-05-10T06:22:40;1.67;;;1.58;;
46334;SDS011;32051;48.882;9.210;2023-05-10T06:25:07;8.85;;;1.52;;
46334;SDS011;32051;48.882;9.210;2023-05-10T06:27:33;1.80;;;1.45;;
46334;SDS011;32051;48.882;9.210;2023-05-10T06:29:59;2.85;;;1.70;;
46334;SDS011;32051;48.882;9.210;2023-05-10T06:32:25;2.05;;;1.52;;
46334;SDS011;32051;48.882;9.210;2023-05-10T06:34:51;1.58;;;1.35;;
46334;SDS011;32051;48.882;9.210;2023-05-10T06:37:17;2.25;;;1.38;;
46334;SDS011;32051;48.882;9.210;2023-05-10T06:39:43;1.63;;;1.52;;
46334;SDS011;32051;48.882;9.210;2023-05-10T06:42:09;1.25;;;1.15;;
46334;SDS011;32051;48.882;9.210;2023-05-10T06:44:35;3.90;;;1.30;;
46334;SDS011;32051;48.882;9.210;2023-05-10T06:47:02;1.27;;;1.20;;
46334;SDS011;32051;48.882;9.210;2023-05-10T06:49:28;1.55;;;1.45;;
46334;SDS011;32051;48.882;9.210;2023-05-10T06:51:55;2.85;;;1.27;;
46334;SDS011;32051;48.882;9.210;2023-05-10T06:54:21;1.10;;;1.10;;
46334;SDS011;32051;48.882;9.210;2023-05-10T06:56:48;1.15;;;1.15;;
46334;SDS011;32051;48.882;9.210;2023-05-10T06:59:14;4.03;;;1.40;;
46334;SDS011;32051;48.882;9.210;2023-05-10T07:01:42;1.10;;;1.10;;
46334;SDS011;32051;48.882;9.210;2023-05-10T07:04:09;1.88;;;1.00;;
46334;SDS011;32051;48.882;9.210;2023-05-10T07:06:35;2.92;;;1.30;;
46334;SDS011;32051;48.882;9.210;2023-05-10T07:09:01;2.25;;;0.80;;
46334;SDS011;32051;48.882;9.210;2023-05-10T07:11:27;0.70;;;0.70;;
46334;SDS011;32051;48.882;9.210;2023-05-10T07:13:53;2.80;;;0.85;;
46334;SDS011;32051;48.882;9.210;2023-05-10T07:16:19;2.17;;;1.27;;
46334;SDS011;32051;48.882;9.210;2023-05-10T07:18:46;1.67;;;1.02;;
46334;SDS011;32051;48.882;9.210;2023-05-10T07:21:12;2.53;;;1.20;;
46334;SDS011;32051;48.882;9.210;2023-05-10T07:23:38;2.05;;;1.45;;
46334;SDS011;32051;48.882;9.210;2023-05-10T07:26:04;4.38;;;1.10;;
46334;SDS011;32051;48.882;9.210;2023-05-10T07:28:30;1.80;;;0.88;;
46334;SDS011;32051;48.882;9.210;2023-05-10T07:30:57;2.80;;;1.10;;
46334;SDS011;32051;48.882;9.210;2023-05-10T07:33:23;2.55;;;0.90;;
46334;SDS011;32051;48.882;9.210;2023-05-10T07:35:49;0.82;;;0.80;;
46334;SDS011;32051;48.882;9.210;2023-05-10T07:38:16;0.95;;;0.75;;
46334;SDS011;32051;48.882;9.210;2023-05-10T07:40:42;4.00;;;0.95;;
46334;SDS011;32051;48.882;9.210;2023-05-10T07:43:08;3.83;;;0.68;;
46334;SDS011;32051;48.882;9.210;2023-05-10T07:45:34;4.78;;;0.50;;
46334;SDS011;32051;48.882;9.210;2023-05-10T07:48:00;4.10;;;1.42;;
46334;SDS011;32051;48.882;9.210;2023-05-10T07:50:27;0.73;;;0.65;;
46334;SDS011;32051;48.882;9.210;2023-05-10T07:52:53;0.85;;;0.60;;
46334;SDS011;32051;48.882;9.210;2023-05-10T07:55:19;3.65;;;0.50;;
46334;SDS011;32051;48.882;9.210;2023-05-10T07:57:46;2.97;;;0.57;;
46334;SDS011;32051;48.882;9.210;2023-05-10T08:00:12;0.63;;;0.55;;
46334;SDS011;32051;48.882;9.210;2023-05-10T08:02:39;0.73;;;0.60;;
46334;SDS011;32051;48.882;9.210;2023-05-10T08:05:05;3.10;;;0.50;;
46334;SDS011;32051;48.882;9.210;2023-05-10T08:07:31;2.25;;;0.60;;
46334;SDS011;32051;48.882;9.210;2023-05-10T08:09:58;2.85;;;1.08;;
46334;SDS011;32051;48.882;9.210;2023-05-10T08:12:24;3.03;;;1.30;;
46334;SDS011;32051;48.882;9.210;2023-05-10T08:14:50;0.60;;;0.38;;
46334;SDS011;32051;48.882;9.210;2023-05-10T08:17:16;0.22;;;0.22;;
46334;SDS011;32051;48.882;9.210;2023-05-10T08:19:42;0.30;;;0.30;;
46334;SDS011;32051;48.882;9.210;2023-05-10T08:22:09;0.35;;;0.35;;
46334;SDS011;32051;48.882;9.210;2023-05-10T08:24:35;0.60;;;0.60;;
46334;SDS011;32051;48.882;9.210;2023-05-10T08:27:04;0.70;;;0.40;;
46334;SDS011;32051;48.882;9.210;2023-05-10T08:29:30;3.35;;;0.50;;
46334;SDS011;32051;48.882;9.210;2023-05-10T08:31:56;0.40;;;0.40;;
46334;SDS011;32051;48.882;9.210;2023-05-10T08:34:22;0.40;;;0.40;;
46334;SDS011;32051;48.882;9.210;2023-05-10T08:36:48;0.55;;;0.50;;
46334;SDS011;32051;48.882;9.210;2023-05-10T08:39:14;2.38;;;1.10;;
46334;SDS011;32051;48.882;9.210;2023-05-10T08:41:40;0.45;;;0.43;;
46334;SDS011;32051;48.882;9.210;2023-05-10T08:44:09;0.47;;;0.35;;
46334;SDS011;32051;48.882;9.210;2023-05-10T08:46:36;1.85;;;1.20;;
46334;SDS011;32051;48.882;9.210;2023-05-10T08:49:06;0.20;;;0.20;;
46334;SDS011;32051;48.882;9.210;2023-05-10T08:51:39;0.30;;;0.30;;
46334;SDS011;32051;48.882;9.210;2023-05-10T08:54:06;0.30;;;0.30;;
46334;SDS011;32051;48.882;9.210;2023-05-10T08:56:32;1.17;;;0.40;;
46334;SDS011;32051;48.882;9.210;2023-05-10T08:58:58;0.35;;;0.35;;
46334;SDS011;32051;48.882;9.210;2023-05-10T09:01:24;0.60;;;0.35;;
46334;SDS011;32051;48.882;9.210;2023-05-10T09:03:51;2.60;;;0.40;;
46334;SDS011;32051;48.882;9.210;2023-05-10T09:06:17;0.25;;;0.20;;
46334;SDS011;32051;48.882;9.210;2023-05-10T09:08:43;0.63;;;0.40;;
46334;SDS011;32051;48.882;9.210;2023-05-10T09:11:11;0.20;;;0.20;;
46334;SDS011;32051;48.882;9.210;2023-05-10T09:13:37;0.70;;;0.47;;
46334;SDS011;32051;48.882;9.210;2023-05-10T09:16:03;0.35;;;0.20;;
46334;SDS011;32051;48.882;9.210;2023-05-10T09:18:30;7.13;;;0.30;;
46334;SDS011;32051;48.882;9.210;2023-05-10T09:20:56;0.20;;;0.20;;
46334;SDS011;32051;48.882;9.210;2023-05-10T09:23:22;2.78;;;0.30;;
46334;SDS011;32051;48.882;9.210;2023-05-10T09:26:05;0.20;;;0.20;;
46334;SDS011;32051;48.882;9.210;2023-05-10T09:28:32;0.40;;;0.40;;
46334;SDS011;32051;48.882;9.210;2023-05-10T09:30:59;0.32;;;0.32;;
46334;SDS011;32051;48.882;9.210;2023-05-10T09:33:25;0.17;;;0.17;;
46334;SDS011;32051;48.882;9.210;2023-05-10T09:35:54;0.47;;;0.40;;
46334;SDS011;32051;48.882;9.210;2023-05-10T09:38:19;0.52;;;0.40;;
46334;SDS011;32051;48.882;9.210;2023-05-10T09:40:50;0.30;;;0.30;;
46334;SDS011;32051;48.882;9.210;2023-05-10T09:43:20;0.43;;;0.43;;
46334;SDS011;32051;48.882;9.210;2023-05-10T09:45:47;0.60;;;0.60;;
46334;SDS011;32051;48.882;9.210;2023-05-10T09:48:14;0.82;;;0.43;;
46334;SDS011;32051;48.882;9.210;2023-05-10T09:50:40;0.28;;;0.28;;
46334;SDS011;32051;48.882;9.210;2023-05-10T09:53:07;0.22;;;0.22;;
46334;SDS011;32051;48.882;9.210;2023-05-10T09:58:01;1.10;;;0.55;;
46334;SDS011;32051;48.882;9.210;2023-05-10T10:00:27;1.77;;;1.10;;
46334;SDS011;32051;48.882;9.210;2023-05-10T10:02:59;0.30;;;0.30;;
46334;SDS011;32051;48.882;9.210;2023-05-10T10:05:28;0.50;;;0.22;;
46334;SDS011;32051;48.882;9.210;2023-05-10T10:07:58;0.30;;;0.30;;
46334;SDS011;32051;48.882;9.210;2023-05-10T10:10:26;0.90;;;0.38;;
46334;SDS011;32051;48.882;9.210;2023-05-10T10:12:53;0.55;;;0.38;;
46334;SDS011;32051;48.882;9.210;2023-05-10T10:15:23;3.40;;;0.47;;
46334;SDS011;32051;48.882;9.210;2023-05-10T10:17:50;0.52;;;0.52;;
46334;SDS011;32051;48.882;9.210;2023-05-10T10:20:17;0.43;;;0.30;;
46334;SDS011;32051;48.882;9.210;2023-05-10T10:22:43;0.52;;;0.50;;
46334;SDS011;32051;48.882;9.210;2023-05-10T10:25:11;1.95;;;0.68;;
46334;SDS011;32051;48.882;9.210;2023-05-10T10:33:09;0.75;;;0.60;;
46334;SDS011;32051;48.882;9.210;2023-05-10T10:35:33;1.95;;;0.50;;
46334;SDS011;32051;48.882;9.210;2023-05-10T10:38:00;0.22;;;0.22;;
46334;SDS011;32051;48.882;9.210;2023-05-10T10:42:53;3.15;;;0.50;;
46334;SDS011;32051;48.882;9.210;2023-05-10T10:45:19;1.52;;;0.40;;
46334;SDS011;32051;48.882;9.210;2023-05-10T10:47:46;0.30;;;0.30;;
46334;SDS011;32051;48.882;9.210;2023-05-10T10:50:12;2.55;;;0.50;;
46334;SDS011;32051;48.882;9.210;2023-05-10T10:52:39;1.38;;;0.43;;
46334;SDS011;32051;48.882;9.210;2023-05-10T10:55:06;0.73;;;0.40;;
46334;SDS011;32051;48.882;9.210;2023-05-10T10:57:44;0.25;;;0.25;;
46334;SDS011;32051;48.882;9.210;2023-05-10T11:02:49;1.08;;;0.98;;
46334;SDS011;32051;48.882;9.210;2023-05-10T11:07:56;0.25;;;0.20;;
46334;SDS011;32051;48.882;9.210;2023-05-10T11:10:23;6.53;;;0.70;;
46334;SDS011;32051;48.882;9.210;2023-05-10T11:15:35;0.55;;;0.55;;
46334;SDS011;32051;48.882;9.210;2023-05-10T11:18:21;4.75;;;0.50;;
46334;SDS011;32051;48.882;9.210;2023-05-10T11:23:23;4.35;;;0.40;;
46334;SDS011;32051;48.882;9.210;2023-05-10T11:25:54;6.75;;;1.05;;
46334;SDS011;32051;48.882;9.210;2023-05-10T11:28:19;1.23;;;0.35;;
46334;SDS011;32051;48.882;9.210;2023-05-10T11:30:45;3.05;;;0.30;;
46334;SDS011;32051;48.882;9.210;2023-05-10T11:33:18;1.02;;;0.43;;
46334;SDS011;32051;48.882;9.210;2023-05-10T11:35:44;4.90;;;0.85;;
46334;SDS011;32051;48.882;9.210;2023-05-10T11:38:11;0.63;;;0.30;;
46334;SDS011;32051;48.882;9.210;2023-05-10T11:40:38;1.13;;;0.52;;
46334;SDS011;32051;48.882;9.210;2023-05-10T11:43:04;1.70;;;0.47;;
46334;SDS011;32051;48.882;9.210;2023-05-10T11:45:33;5.55;;;0.50;;
46334;SDS011;32051;48.882;9.210;2023-05-10T11:47:59;0.50;;;0.50;;
46334;SDS011;32051;48.882;9.210;2023-05-10T11:50:26;0.60;;;0.40;;
46334;SDS011;32051;48.882;9.210;2023-05-10T11:52:52;1.23;;;0.60;;
46334;SDS011;32051;48.882;9.210;2023-05-10T11:55:19;3.53;;;0.75;;
46334;SDS011;32051;48.882;9.210;2023-05-10T11:57:45;8.00;;;0.60;;
46334;SDS011;32051;48.882;9.210;2023-05-10T12:00:11;8.70;;;0.60;;
46334;SDS011;32051;48.882;9.210;2023-05-10T12:02:41;5.15;;;1.15;;
46334;SDS011;32051;48.882;9.210;2023-05-10T12:05:07;1.55;;;0.50;;
46334;SDS011;32051;48.882;9.210;2023-05-10T12:07:34;5.47;;;0.50;;
46334;SDS011;32051;48.882;9.210;2023-05-10T12:12:42;1.05;;;0.57;;
46334;SDS011;32051;48.882;9.210;2023-05-10T12:17:45;6.22;;;0.60;;
46334;SDS011;32051;48.882;9.210;2023-05-10T12:20:15;0.57;;;0.57;;
46334;SDS011;32051;48.882;9.210;2023-05-10T12:22:45;1.05;;;0.82;;
46334;SDS011;32051;48.882;9.210;2023-05-10T12:25:11;0.47;;;0.47;;
46334;SDS011;32051;48.882;9.210;2023-05-10T12:27:37;3.63;;;1.85;;
46334;SDS011;32051;48.882;9.210;2023-05-10T12:30:03;6.15;;;1.58;;
46334;SDS011;32051;48.882;9.210;2023-05-10T12:32:43;6.65;;;0.75;;
46334;SDS011;32051;48.882;9.210;2023-05-10T12:35:10;0.98;;;0.50;;
46334;SDS011;32051;48.882;9.210;2023-05-10T12:37:36;6.88;;;0.85;;
46334;SDS011;32051;48.882;9.210;2023-05-10T12:40:07;1.40;;;0.50;;
46334;SDS011;32051;48.882;9.210;2023-05-10T12:42:33;2.38;;;0.50;;
46334;SDS011;32051;48.882;9.210;2023-05-10T12:45:01;7.45;;;0.65;;
46334;SDS011;32051;48.882;9.210;2023-05-10T12:47:27;0.60;;;0.40;;
46334;SDS011;32051;48.882;9.210;2023-05-10T12:49:54;0.32;;;0.32;;
46334;SDS011;32051;48.882;9.210;2023-05-10T12:52:20;0.40;;;0.30;;
46334;SDS011;32051;48.882;9.210;2023-05-10T12:54:46;3.15;;;0.88;;
46334;SDS011;32051;48.882;9.210;2023-05-10T12:57:12;0.40;;;0.40;;
46334;SDS011;32051;48.882;9.210;2023-05-10T12:59:38;4.15;;;0.82;;
46334;SDS011;32051;48.882;9.210;2023-05-10T13:02:05;0.65;;;0.57;;
46334;SDS011;32051;48.882;9.210;2023-05-10T13:04:31;1.05;;;0.70;;
46334;SDS011;32051;48.882;9.210;2023-05-10T13:06:57;2.03;;;0.82;;
46334;SDS011;32051;48.882;9.210;2023-05-10T13:09:26;4.75;;;0.50;;
46334;SDS011;32051;48.882;9.210;2023-05-10T13:11:54;4.25;;;0.50;;
46334;SDS011;32051;48.882;9.210;2023-05-10T13:14:20;1.98;;;0.73;;
46334;SDS011;32051;48.882;9.210;2023-05-10T13:16:46;2.10;;;0.40;;
46334;SDS011;32051;48.882;9.210;2023-05-10T13:19:12;4.88;;;0.50;;
46334;SDS011;32051;48.882;9.210;2023-05-10T13:21:39;6.65;;;1.42;;
46334;SDS011;32051;48.882;9.210;2023-05-10T13:24:06;1.38;;;0.85;;
46334;SDS011;32051;48.882;9.210;2023-05-10T13:26:32;1.45;;;0.55;;
46334;SDS011;32051;48.882;9.210;2023-05-10T13:28:58;0.98;;;0.60;;
46334;SDS011;32051;48.882;9.210;2023-05-10T13:31:24;6.20;;;0.55;;
46334;SDS011;32051;48.882;9.210;2023-05-10T13:33:50;0.32;;;0.32;;
46334;SDS011;32051;48.882;9.210;2023-05-10T13:36:16;3.50;;;0.70;;
46334;SDS011;32051;48.882;9.210;2023-05-10T13:38:41;2.65;;;0.93;;
46334;SDS011;32051;48.882;9.210;2023-05-10T13:41:07;0.68;;;0.47;;
46334;SDS011;32051;48.882;9.210;2023-05-10T13:43:33;5.80;;;0.40;;
46334;SDS011;32051;48.882;9.210;2023-05-10T13:45:58;6.75;;;0.52;;
46334;SDS011;32051;48.882;9.210;2023-05-10T13:48:24;1.85;;;0.65;;
46334;SDS011;32051;48.882;9.210;2023-05-10T13:50:50;8.30;;;0.60;;
46334;SDS011;32051;48.882;9.210;2023-05-10T13:53:15;3.03;;;2.15;;
46334;SDS011;32051;48.882;9.210;2023-05-10T13:55:41;0.95;;;0.70;;
46334;SDS011;32051;48.882;9.210;2023-05-10T13:58:07;3.20;;;0.50;;
46334;SDS011;32051;48.882;9.210;2023-05-10T14:00:32;2.70;;;0.57;;
46334;SDS011;32051;48.882;9.210;2023-05-10T14:02:58;1.05;;;0.50;;
46334;SDS011;32051;48.882;9.210;2023-05-10T14:05:24;4.57;;;1.27;;
46334;SDS011;32051;48.882;9.210;2023-05-10T14:07:50;1.95;;;0.60;;
46334;SDS011;32051;48.882;9.210;2023-05-10T14:10:16;0.40;;;0.40;;
46334;SDS011;32051;48.882;9.210;2023-05-10T14:12:41;1.08;;;0.63;;
46334;SDS011;32051;48.882;9.210;2023-05-10T14:15:07;0.40;;;0.40;;
46334;SDS011;32051;48.882;9.210;2023-05-10T14:17:35;0.38;;;0.32;;
46334;SDS011;32051;48.882;9.210;2023-05-10T14:20:01;0.63;;;0.40;;
46334;SDS011;32051;48.882;9.210;2023-05-10T14:22:27;0.80;;;0.75;;
46334;SDS011;32051;48.882;9.210;2023-05-10T14:24:53;2.35;;;0.60;;
46334;SDS011;32051;48.882;9.210;2023-05-10T14:27:19;3.40;;;0.50;;
46334;SDS011;32051;48.882;9.210;2023-05-10T14:29:45;1.13;;;0.50;;
46334;SDS011;32051;48.882;9.210;2023-05-10T14:32:10;1.27;;;0.73;;
46334;SDS011;32051;48.882;9.210;2023-05-10T14:34:36;0.73;;;0.50;;
46334;SDS011;32051;48.882;9.210;2023-05-10T14:37:02;0.30;;;0.30;;
46334;SDS011;32051;48.882;9.210;2023-05-10T14:39:27;5.85;;;0.40;;
46334;SDS011;32051;48.882;9.210;2023-05-10T14:41:56;4.93;;;0.70;;
46334;SDS011;32051;48.882;9.210;2023-05-10T14:44:22;1.85;;;1.52;;
46334;SDS011;32051;48.882;9.210;2023-05-10T14:46:48;7.32;;;1.42;;
46334;SDS011;32051;48.882;9.210;2023-05-10T14:49:14;0.55;;;0.40;;
46334;SDS011;32051;48.882;9.210;2023-05-10T14:51:40;0.47;;;0.43;;
46334;SDS011;32051;48.882;9.210;2023-05-10T14:54:06;0.93;;;0.40;;
46334;SDS011;32051;48.882;9.210;2023-05-10T14:56:32;1.95;;;0.80;;
46334;SDS011;32051;48.882;9.210;2023-05-10T14:58:57;1.95;;;0.50;;
46334;SDS011;32051;48.882;9.210;2023-05-10T15:01:25;6.13;;;0.50;;
46334;SDS011;32051;48.882;9.210;2023-05-10T15:03:51;1.88;;;0.50;;
46334;SDS011;32051;48.882;9.210;2023-05-10T15:06:17;1.30;;;0.52;;
46334;SDS011;32051;48.882;9.210;2023-05-10T15:11:15;1.95;;;0.65;;
46334;SDS011;32051;48.882;9.210;2023-05-10T15:13:41;2.60;;;0.88;;
46334;SDS011;32051;48.882;9.210;2023-05-10T15:16:06;7.88;;;0.43;;
46334;SDS011;32051;48.882;9.210;2023-05-10T15:18:33;1.27;;;0.60;;
46334;SDS011;32051;48.882;9.210;2023-05-10T15:20:59;1.85;;;0.40;;
46334;SDS011;32051;48.882;9.210;2023-05-10T15:23:24;2.05;;;0.30;;
46334;SDS011;32051;48.882;9.210;2023-05-10T15:25:50;0.88;;;0.30;;
46334;SDS011;32051;48.882;9.210;2023-05-10T15:28:20;0.25;;;0.25;;